sensor_id;sensor_type;location;lat;lon;timestamp;pressure;altitude;pressure_sealevel;temperature;humidity
78144;BME280;67394;52.522;13.622;2023-06-14T00:01:01;101177.63;;;12.07;73.71
78144;BME280;67394;52.522;13.622;2023-06-14T00:03:28;101189.59;;;12.05;73.81
78144;BME280;67394;52.522;13.622;2023-06-14T00:05:55;101193.03;;;12.06;74.18
78144;BME280;67394;52.522;13.622;2023-06-14T00:08:21;101187.88;;;12.03;74.26
78144;BME280;67394;52.522;13.622;2023-06-14T00:10:48;101186.16;;;12.00;74.53
78144;BME280;67394;52.522;13.622;2023-06-14T00:13:15;101191.31;;;12.02;74.72
78144;BME280;67394;52.522;13.622;2023-06-14T00:15:41;101185.31;;;11.97;74.95
78144;BME280;67394;52.522;13.622;2023-06-14T00:18:08;101188.72;;;11.94;74.66
78144;BME280;67394;52.522;13.622;2023-06-14T00:20:34;101187.88;;;11.94;75.00
78144;BME280;67394;52.522;13.622;2023-06-14T00:23:01;101188.72;;;11.96;75.29
78144;BME280;67394;52.522;13.622;2023-06-14T00:25:28;101187.88;;;11.94;75.60
78144;BME280;67394;52.522;13.622;2023-06-14T00:27:56;101190.41;;;11.89;75.72
78144;BME280;67394;52.522;13.622;2023-06-14T00:30:24;101180.97;;;11.88;75.52
78144;BME280;67394;52.522;13.622;2023-06-14T00:32:50;101182.69;;;11.85;75.89
78144;BME280;67394;52.522;13.622;2023-06-14T00:35:17;101184.44;;;11.86;75.35
78144;BME280;67394;52.522;13.622;2023-06-14T00:37:44;101183.56;;;11.85;75.96
78144;BME280;67394;52.522;13.622;2023-06-14T00:40:10;101187.81;;;11.82;76.34
78144;BME280;67394;52.522;13.622;2023-06-14T00:42:37;101185.25;;;11.76;76.34
78144;BME280;67394;52.522;13.622;2023-06-14T00:45:04;101188.63;;;11.74;76.73
78144;BME280;67394;52.522;13.622;2023-06-14T00:47:30;101186.88;;;11.67;77.05
78144;BME280;67394;52.522;13.622;2023-06-14T00:49:58;101192.84;;;11.66;77.62
78144;BME280;67394;52.522;13.622;2023-06-14T00:52:26;101186.00;;;11.67;77.02
78144;BME280;67394;52.522;13.622;2023-06-14T00:54:53;101181.75;;;11.69;77.14
78144;BME280;67394;52.522;13.622;2023-06-14T00:57:19;101188.59;;;11.64;77.18
78144;BME280;67394;52.522;13.622;2023-06-14T00:59:47;101185.16;;;11.62;77.30
78144;BME280;67394;52.522;13.622;2023-06-14T01:02:14;101180.84;;;11.56;76.86
78144;BME280;67394;52.522;13.622;2023-06-14T01:04:43;101182.53;;;11.48;76.99
78144;BME280;67394;52.522;13.622;2023-06-14T01:15:54;101182.44;;;11.34;78.45
78144;BME280;67394;52.522;13.622;2023-06-14T01:18:22;101186.75;;;11.32;78.33
78144;BME280;67394;52.522;13.622;2023-06-14T01:20:48;101184.13;;;11.28;79.53
78144;BME280;67394;52.522;13.622;2023-06-14T01:23:19;101182.41;;;11.21;78.77
78144;BME280;67394;52.522;13.622;2023-06-14T01:25:46;101187.47;;;11.15;79.58
78144;BME280;67394;52.522;13.622;2023-06-14T01:28:15;101188.34;;;11.11;80.05
78144;BME280;67394;52.522;13.622;2023-06-14T01:30:44;101186.63;;;11.10;79.59
78144;BME280;67394;52.522;13.622;2023-06-14T01:33:13;101191.72;;;11.07;80.57
78144;BME280;67394;52.522;13.622;2023-06-14T01:35:46;101189.09;;;10.97;80.39
78144;BME280;67394;52.522;13.622;2023-06-14T01:38:14;101189.09;;;10.97;81.26
78144;BME280;67394;52.522;13.622;2023-06-14T01:40:46;101192.50;;;10.96;81.48
78144;BME280;67394;52.522;13.622;2023-06-14T01:43:15;101190.81;;;10.98;81.02
78144;BME280;67394;52.522;13.622;2023-06-14T01:45:42;101188.22;;;10.95;81.55
78144;BME280;67394;52.522;13.622;2023-06-14T01:48:11;101189.91;;;10.93;81.33
78144;BME280;67394;52.522;13.622;2023-06-14T01:50:38;101189.03;;;10.88;82.24
78144;BME280;67394;52.522;13.622;2023-06-14T01:53:09;101182.13;;;10.81;82.04
78144;BME280;67394;52.522;13.622;2023-06-14T01:55:36;101183.84;;;10.82;81.92
78144;BME280;67394;52.522;13.622;2023-06-14T01:58:03;101184.72;;;10.83;82.02
78144;BME280;67394;52.522;13.622;2023-06-14T02:00:30;101187.25;;;10.78;82.31
78144;BME280;67394;52.522;13.622;2023-06-14T02:02:56;101188.13;;;10.82;82.18
78144;BME280;67394;52.522;13.622;2023-06-14T02:05:23;101188.13;;;10.80;81.95
78144;BME280;67394;52.522;13.622;2023-06-14T02:07:50;101190.69;;;10.79;82.70
78144;BME280;67394;52.522;13.622;2023-06-14T02:10:16;101199.19;;;10.75;82.94
78144;BME280;67394;52.522;13.622;2023-06-14T02:12:43;101196.56;;;10.70;83.08
78144;BME280;67394;52.522;13.622;2023-06-14T02:15:10;101198.25;;;10.65;83.75
78144;BME280;67394;52.522;13.622;2023-06-14T02:17:36;101199.09;;;10.62;83.34
78144;BME280;67394;52.522;13.622;2023-06-14T02:20:03;101202.56;;;10.68;83.95
78144;BME280;67394;52.522;13.622;2023-06-14T02:22:29;101200.81;;;10.65;84.09
78144;BME280;67394;52.522;13.622;2023-06-14T02:24:56;101193.94;;;10.61;84.09
78144;BME280;67394;52.522;13.622;2023-06-14T02:27:28;101194.00;;;10.66;83.93
78144;BME280;67394;52.522;13.622;2023-06-14T02:29:54;101188.84;;;10.64;84.14
78144;BME280;67394;52.522;13.622;2023-06-14T02:32:21;101194.84;;;10.64;84.93
78144;BME280;67394;52.522;13.622;2023-06-14T02:34:47;101193.13;;;10.63;84.80
78144;BME280;67394;52.522;13.622;2023-06-14T02:37:13;101197.38;;;10.63;84.64
78144;BME280;67394;52.522;13.622;2023-06-14T02:39:40;101196.50;;;10.61;84.52
78144;BME280;67394;52.522;13.622;2023-06-14T02:42:07;101193.09;;;10.57;85.10
78144;BME280;67394;52.522;13.622;2023-06-14T02:44:33;101193.91;;;10.55;85.08
78144;BME280;67394;52.522;13.622;2023-06-14T02:46:59;101198.19;;;10.56;84.62
78144;BME280;67394;52.522;13.622;2023-06-14T02:49:26;101197.34;;;10.57;84.82
78144;BME280;67394;52.522;13.622;2023-06-14T02:51:53;101195.63;;;10.56;85.19
78144;BME280;67394;52.522;13.622;2023-06-14T02:54:19;101191.38;;;10.58;84.79
78144;BME280;67394;52.522;13.622;2023-06-14T02:56:45;101198.22;;;10.59;84.70
78144;BME280;67394;52.522;13.622;2023-06-14T02:59:12;101192.22;;;10.57;84.82
78144;BME280;67394;52.522;13.622;2023-06-14T03:01:39;101197.34;;;10.60;84.75
78144;BME280;67394;52.522;13.622;2023-06-14T03:04:07;101195.66;;;10.59;84.79
78144;BME280;67394;52.522;13.622;2023-06-14T03:06:33;101191.38;;;10.59;84.51
78144;BME280;67394;52.522;13.622;2023-06-14T03:09:00;101193.09;;;10.59;84.96
78144;BME280;67394;52.522;13.622;2023-06-14T03:11:27;101191.38;;;10.58;85.37
78144;BME280;67394;52.522;13.622;2023-06-14T03:13:54;101184.53;;;10.60;85.42
78144;BME280;67394;52.522;13.622;2023-06-14T03:16:20;101190.53;;;10.60;85.08
78144;BME280;67394;52.522;13.622;2023-06-14T03:18:53;101185.38;;;10.57;85.08
78144;BME280;67394;52.522;13.622;2023-06-14T03:21:19;101195.66;;;10.59;85.87
78144;BME280;67394;52.522;13.622;2023-06-14T03:23:47;101194.78;;;10.60;85.46
78144;BME280;67394;52.522;13.622;2023-06-14T03:26:14;101190.56;;;10.63;84.70
78144;BME280;67394;52.522;13.622;2023-06-14T03:28:41;101193.16;;;10.68;84.75
78144;BME280;67394;52.522;13.622;2023-06-14T03:31:07;101199.13;;;10.67;85.50
78144;BME280;67394;52.522;13.622;2023-06-14T03:33:34;101193.13;;;10.65;85.41
78144;BME280;67394;52.522;13.622;2023-06-14T03:36:01;101201.69;;;10.67;85.46
78144;BME280;67394;52.522;13.622;2023-06-14T03:38:28;101199.13;;;10.70;85.36
78144;BME280;67394;52.522;13.622;2023-06-14T03:40:54;101195.75;;;10.73;84.17
78144;BME280;67394;52.522;13.622;2023-06-14T03:43:21;101191.53;;;10.78;84.42
78144;BME280;67394;52.522;13.622;2023-06-14T03:45:47;101189.81;;;10.81;84.64
78144;BME280;67394;52.522;13.622;2023-06-14T03:48:14;101194.16;;;10.87;85.12
78144;BME280;67394;52.522;13.622;2023-06-14T03:50:41;101189.06;;;10.94;84.41
78144;BME280;67394;52.522;13.622;2023-06-14T03:53:07;101202.78;;;11.02;85.24
78144;BME280;67394;52.522;13.622;2023-06-14T03:55:34;101210.56;;;11.12;84.61
78144;BME280;67394;52.522;13.622;2023-06-14T03:58:03;101213.19;;;11.21;84.75
78144;BME280;67394;52.522;13.622;2023-06-14T04:00:30;101218.38;;;11.28;84.39
78144;BME280;67394;52.522;13.622;2023-06-14T04:02:56;101223.53;;;11.33;83.48
78144;BME280;67394;52.522;13.622;2023-06-14T04:05:23;101226.13;;;11.41;83.82
78144;BME280;67394;52.522;13.622;2023-06-14T04:07:49;101231.28;;;11.42;83.50
78144;BME280;67394;52.522;13.622;2023-06-14T04:10:16;101217.59;;;11.46;83.84
78144;BME280;67394;52.522;13.622;2023-06-14T04:12:42;101234.72;;;11.49;83.43
78144;BME280;67394;52.522;13.622;2023-06-14T04:15:09;101227.06;;;11.53;83.85
78144;BME280;67394;52.522;13.622;2023-06-14T04:17:47;101227.06;;;11.59;83.62
78144;BME280;67394;52.522;13.622;2023-06-14T04:20:13;101233.94;;;11.60;83.50
78144;BME280;67394;52.522;13.622;2023-06-14T04:22:40;101224.53;;;11.62;83.00
78144;BME280;67394;52.522;13.622;2023-06-14T04:25:06;101225.38;;;11.66;82.88
78144;BME280;67394;52.522;13.622;2023-06-14T04:27:33;101224.53;;;11.68;83.05
78144;BME280;67394;52.522;13.622;2023-06-14T04:29:59;101229.72;;;11.74;82.91
78144;BME280;67394;52.522;13.622;2023-06-14T04:32:26;101234.91;;;11.79;82.79
78144;BME280;67394;52.522;13.622;2023-06-14T04:34:54;101221.22;;;11.83;81.97
78144;BME280;67394;52.522;13.622;2023-06-14T04:37:22;101220.38;;;11.90;82.41
78144;BME280;67394;52.522;13.622;2023-06-14T04:39:48;101222.13;;;11.99;82.51
78144;BME280;67394;52.522;13.622;2023-06-14T04:42:17;101225.56;;;12.04;82.29
78144;BME280;67394;52.522;13.622;2023-06-14T04:44:44;101229.00;;;12.12;82.37
78144;BME280;67394;52.522;13.622;2023-06-14T04:47:10;101230.75;;;12.25;81.64
78144;BME280;67394;52.522;13.622;2023-06-14T04:49:37;101236.75;;;12.33;82.04
78144;BME280;67394;52.522;13.622;2023-06-14T04:52:04;101240.22;;;12.49;80.99
78144;BME280;67394;52.522;13.622;2023-06-14T04:54:30;101232.53;;;12.49;81.00
78144;BME280;67394;52.522;13.622;2023-06-14T04:56:58;101240.22;;;12.49;81.00
78144;BME280;67394;52.522;13.622;2023-06-14T04:59:25;101230.81;;;12.50;81.26
78144;BME280;67394;52.522;13.622;2023-06-14T05:01:51;101237.66;;;12.54;80.68
78144;BME280;67394;52.522;13.622;2023-06-14T05:04:20;101235.06;;;12.61;80.36
78144;BME280;67394;52.522;13.622;2023-06-14T05:06:47;101240.22;;;12.75;80.76
78144;BME280;67394;52.522;13.622;2023-06-14T05:09:14;101232.50;;;12.82;80.73
78144;BME280;67394;52.522;13.622;2023-06-14T05:11:41;101234.22;;;13.00;80.25
78144;BME280;67394;52.522;13.622;2023-06-14T05:14:07;101241.91;;;13.03;80.17
78144;BME280;67394;52.522;13.622;2023-06-14T05:16:34;101240.22;;;13.13;79.77
78144;BME280;67394;52.522;13.622;2023-06-14T05:19:01;101247.09;;;13.20;79.63
78144;BME280;67394;52.522;13.622;2023-06-14T05:21:30;101242.81;;;13.24;78.21
78144;BME280;67394;52.522;13.622;2023-06-14T05:23:57;101242.78;;;13.28;79.12
78144;BME280;67394;52.522;13.622;2023-06-14T05:26:24;101243.66;;;13.33;78.62
78144;BME280;67394;52.522;13.622;2023-06-14T05:28:50;101251.34;;;13.41;78.59
78144;BME280;67394;52.522;13.622;2023-06-14T05:31:17;101257.31;;;13.47;77.92
78144;BME280;67394;52.522;13.622;2023-06-14T05:33:44;101254.75;;;13.52;77.86
78144;BME280;67394;52.522;13.622;2023-06-14T05:36:12;101259.00;;;13.56;77.97
78144;BME280;67394;52.522;13.622;2023-06-14T05:38:39;101265.03;;;13.63;77.73
78144;BME280;67394;52.522;13.622;2023-06-14T05:41:05;101265.03;;;13.63;77.81
78144;BME280;67394;52.522;13.622;2023-06-14T05:43:33;101260.72;;;13.59;77.81
78144;BME280;67394;52.522;13.622;2023-06-14T05:46:00;101264.16;;;13.57;77.44
78144;BME280;67394;52.522;13.622;2023-06-14T05:48:26;101263.31;;;13.63;77.82
78144;BME280;67394;52.522;13.622;2023-06-14T05:50:53;101263.28;;;13.69;77.58
78144;BME280;67394;52.522;13.622;2023-06-14T05:53:20;101266.66;;;13.77;77.65
78144;BME280;67394;52.522;13.622;2023-06-14T05:55:47;101270.13;;;13.75;77.33
78144;BME280;67394;52.522;13.622;2023-06-14T05:58:13;101273.56;;;13.77;76.89
78144;BME280;67394;52.522;13.622;2023-06-14T06:00:40;101272.69;;;13.79;77.90
78144;BME280;67394;52.522;13.622;2023-06-14T06:03:07;101273.56;;;13.75;76.21
78144;BME280;67394;52.522;13.622;2023-06-14T06:05:34;101273.53;;;13.80;77.39
78144;BME280;67394;52.522;13.622;2023-06-14T06:08:00;101270.09;;;13.82;77.62
78144;BME280;67394;52.522;13.622;2023-06-14T06:10:27;101276.97;;;13.85;76.64
78144;BME280;67394;52.522;13.622;2023-06-14T06:12:55;101272.69;;;13.87;77.17
78144;BME280;67394;52.522;13.622;2023-06-14T06:15:22;101278.66;;;13.93;76.89
78144;BME280;67394;52.522;13.622;2023-06-14T06:17:49;101264.00;;;14.00;77.27
78144;BME280;67394;52.522;13.622;2023-06-14T06:20:23;101262.28;;;14.02;76.11
78144;BME280;67394;52.522;13.622;2023-06-14T06:22:50;101266.59;;;13.99;76.58
78144;BME280;67394;52.522;13.622;2023-06-14T06:25:17;101263.13;;;14.04;76.54
78144;BME280;67394;52.522;13.622;2023-06-14T06:27:44;101261.38;;;14.11;75.73
78144;BME280;67394;52.522;13.622;2023-06-14T06:30:13;101262.22;;;14.16;76.31
78144;BME280;67394;52.522;13.622;2023-06-14T06:32:40;101258.75;;;14.20;75.48
78144;BME280;67394;52.522;13.622;2023-06-14T06:35:07;101265.59;;;14.28;76.42
78144;BME280;67394;52.522;13.622;2023-06-14T06:37:34;101263.81;;;14.38;nan
78144;BME280;67394;52.522;13.622;2023-06-14T06:40:01;101257.75;;;14.51;75.24
78144;BME280;67394;52.522;13.622;2023-06-14T06:42:27;101267.09;;;14.63;74.65
78144;BME280;67394;52.522;13.622;2023-06-14T06:44:54;101265.38;;;14.67;73.96
78144;BME280;67394;52.522;13.622;2023-06-14T06:47:21;101267.06;;;14.72;74.05
78144;BME280;67394;52.522;13.622;2023-06-14T06:49:47;101269.56;;;14.83;74.11
78144;BME280;67394;52.522;13.622;2023-06-14T06:52:14;101269.41;;;14.98;73.18
78144;BME280;67394;52.522;13.622;2023-06-14T06:54:41;101274.41;;;15.16;72.97
78144;BME280;67394;52.522;13.622;2023-06-14T06:57:09;101279.47;;;15.27;72.48
78144;BME280;67394;52.522;13.622;2023-06-14T06:59:36;101277.72;;;15.30;72.01
78144;BME280;67394;52.522;13.622;2023-06-14T07:02:03;101281.94;;;15.37;71.71
78144;BME280;67394;52.522;13.622;2023-06-14T07:04:29;101278.38;;;15.49;72.27
78144;BME280;67394;52.522;13.622;2023-06-14T07:06:56;101281.75;;;15.59;71.88
78144;BME280;67394;52.522;13.622;2023-06-14T07:09:23;101284.34;;;15.59;70.98
78144;BME280;67394;52.522;13.622;2023-06-14T07:11:50;101287.72;;;15.65;70.56
78144;BME280;67394;52.522;13.622;2023-06-14T07:14:17;101294.38;;;15.86;71.33
78144;BME280;67394;52.522;13.622;2023-06-14T07:16:43;101292.44;;;16.03;70.27
78144;BME280;67394;52.522;13.622;2023-06-14T07:19:10;101297.47;;;16.16;69.14
78144;BME280;67394;52.522;13.622;2023-06-14T07:21:36;101307.69;;;16.23;68.77
78144;BME280;67394;52.522;13.622;2023-06-14T07:24:05;101311.84;;;16.35;68.07
78144;BME280;67394;52.522;13.622;2023-06-14T07:26:33;101307.31;;;16.52;68.02
78144;BME280;67394;52.522;13.622;2023-06-14T07:29:01;101310.66;;;16.62;67.35
78144;BME280;67394;52.522;13.622;2023-06-14T07:31:28;101314.88;;;16.67;67.33
78144;BME280;67394;52.522;13.622;2023-06-14T07:33:54;101309.19;;;17.01;66.62
78144;BME280;67394;52.522;13.622;2023-06-14T07:36:22;101317.41;;;17.24;66.17
78144;BME280;67394;52.522;13.622;2023-06-14T07:38:49;101314.00;;;17.22;64.20
78144;BME280;67394;52.522;13.622;2023-06-14T07:41:16;101308.59;;;17.36;63.57
78144;BME280;67394;52.522;13.622;2023-06-14T07:43:42;101312.91;;;17.35;64.12
78144;BME280;67394;52.522;13.622;2023-06-14T07:46:09;101315.53;;;17.32;64.34
78144;BME280;67394;52.522;13.622;2023-06-14T07:48:36;101305.22;;;17.29;63.67
78144;BME280;67394;52.522;13.622;2023-06-14T07:51:03;101300.81;;;17.36;63.95
78144;BME280;67394;52.522;13.622;2023-06-14T07:53:31;101296.47;;;17.36;64.15
78144;BME280;67394;52.522;13.622;2023-06-14T07:55:58;101302.31;;;17.47;63.64
78144;BME280;67394;52.522;13.622;2023-06-14T07:58:25;101299.56;;;17.55;63.61
78144;BME280;67394;52.522;13.622;2023-06-14T08:00:52;101296.13;;;17.54;63.39
78144;BME280;67394;52.522;13.622;2023-06-14T08:03:18;101297.59;;;17.69;63.09
78144;BME280;67394;52.522;13.622;2023-06-14T08:05:45;101302.72;;;17.72;62.78
78144;BME280;67394;52.522;13.622;2023-06-14T08:08:12;101300.63;;;17.91;62.11
78144;BME280;67394;52.522;13.622;2023-06-14T08:10:39;101293.63;;;17.95;61.97
78144;BME280;67394;52.522;13.622;2023-06-14T08:13:06;101299.19;;;18.19;62.90
78144;BME280;67394;52.522;13.622;2023-06-14T08:15:33;101293.00;;;18.23;60.63
78144;BME280;67394;52.522;13.622;2023-06-14T08:17:59;101288.94;;;18.12;60.11
78144;BME280;67394;52.522;13.622;2023-06-14T08:20:26;101288.47;;;18.33;61.47
78144;BME280;67394;52.522;13.622;2023-06-14T08:22:53;101290.66;;;18.53;61.07
78144;BME280;67394;52.522;13.622;2023-06-14T08:25:20;101288.84;;;18.55;59.66
78144;BME280;67394;52.522;13.622;2023-06-14T08:27:47;101286.56;;;18.43;59.48
78144;BME280;67394;52.522;13.622;2023-06-14T08:30:14;101284.03;;;18.38;59.63
78144;BME280;67394;52.522;13.622;2023-06-14T08:32:40;101275.97;;;18.50;60.32
78144;BME280;67394;52.522;13.622;2023-06-14T08:35:07;101273.44;;;18.47;59.58
78144;BME280;67394;52.522;13.622;2023-06-14T08:37:40;101276.69;;;18.57;59.98
78144;BME280;67394;52.522;13.622;2023-06-14T08:42:52;101283.47;;;18.99;57.26
78144;BME280;67394;52.522;13.622;2023-06-14T08:45:21;101273.56;;;19.15;57.71
78144;BME280;67394;52.522;13.622;2023-06-14T08:47:53;101281.19;;;19.21;57.03
78144;BME280;67394;52.522;13.622;2023-06-14T08:50:25;101285.22;;;19.33;57.99
78144;BME280;67394;52.522;13.622;2023-06-14T08:52:57;101297.13;;;19.40;56.93
78144;BME280;67394;52.522;13.622;2023-06-14T08:55:24;101292.13;;;19.34;55.48
78144;BME280;67394;52.522;13.622;2023-06-14T08:57:51;101291.78;;;19.46;56.88
78144;BME280;67394;52.522;13.622;2023-06-14T09:00:20;101301.56;;;19.38;55.47
78144;BME280;67394;52.522;13.622;2023-06-14T09:02:47;101299.31;;;19.24;55.60
78144;BME280;67394;52.522;13.622;2023-06-14T09:05:14;101301.91;;;19.24;54.58
78144;BME280;67394;52.522;13.622;2023-06-14T09:07:41;101303.84;;;19.16;56.38
78144;BME280;67394;52.522;13.622;2023-06-14T09:10:13;101304.97;;;19.06;56.36
78144;BME280;67394;52.522;13.622;2023-06-14T09:12:41;101302.78;;;19.23;57.08
78144;BME280;67394;52.522;13.622;2023-06-14T09:15:09;101301.78;;;18.95;55.82
78144;BME280;67394;52.522;13.622;2023-06-14T09:17:36;101303.06;;;19.13;57.21
78144;BME280;67394;52.522;13.622;2023-06-14T09:20:07;101302.63;;;19.29;56.10
78144;BME280;67394;52.522;13.622;2023-06-14T09:22:35;101301.75;;;19.63;56.19
78144;BME280;67394;52.522;13.622;2023-06-14T09:25:02;101300.09;;;19.60;54.44
78144;BME280;67394;52.522;13.622;2023-06-14T09:27:29;101305.09;;;19.68;54.56
78144;BME280;67394;52.522;13.622;2023-06-14T09:32:23;101310.22;;;20.02;54.62
78144;BME280;67394;52.522;13.622;2023-06-14T09:34:50;101303.97;;;20.37;54.90
78144;BME280;67394;52.522;13.622;2023-06-14T09:37:30;101307.88;;;20.22;52.83
78144;BME280;67394;52.522;13.622;2023-06-14T09:39:58;101307.66;;;20.00;52.66
78144;BME280;67394;52.522;13.622;2023-06-14T09:42:25;101306.06;;;20.24;52.99
78144;BME280;67394;52.522;13.622;2023-06-14T09:44:54;101304.75;;;20.11;53.26
78144;BME280;67394;52.522;13.622;2023-06-14T09:47:22;101306.69;;;20.03;53.25
78144;BME280;67394;52.522;13.622;2023-06-14T09:49:50;101306.69;;;20.03;52.69
78144;BME280;67394;52.522;13.622;2023-06-14T09:52:21;101308.81;;;19.90;53.38
78144;BME280;67394;52.522;13.622;2023-06-14T09:54:48;101319.00;;;19.98;54.25
78144;BME280;67394;52.522;13.622;2023-06-14T09:57:17;101312.72;;;20.05;53.91
78144;BME280;67394;52.522;13.622;2023-06-14T09:59:47;101305.16;;;19.96;53.05
78144;BME280;67394;52.522;13.622;2023-06-14T10:02:31;101307.78;;;19.96;53.07
78144;BME280;67394;52.522;13.622;2023-06-14T10:05:07;101301.56;;;20.01;53.51
78144;BME280;67394;52.522;13.622;2023-06-14T10:07:53;101305.25;;;19.93;52.99
78144;BME280;67394;52.522;13.622;2023-06-14T10:10:22;101303.34;;;19.99;53.39
78144;BME280;67394;52.522;13.622;2023-06-14T10:12:49;101300.75;;;19.99;53.98
78144;BME280;67394;52.522;13.622;2023-06-14T10:15:35;101306.66;;;20.04;53.99
78144;BME280;67394;52.522;13.622;2023-06-14T10:18:18;101301.94;;;19.88;52.73
78144;BME280;67394;52.522;13.622;2023-06-14T10:23:37;101302.03;;;19.85;54.13
78144;BME280;67394;52.522;13.622;2023-06-14T10:26:04;101297.13;;;20.03;54.44
78144;BME280;67394;52.522;13.622;2023-06-14T10:28:30;101300.63;;;20.02;53.91
78144;BME280;67394;52.522;13.622;2023-06-14T10:31:08;101301.97;;;20.16;53.63
78144;BME280;67394;52.522;13.622;2023-06-14T10:33:39;101302.28;;;20.34;52.43
78144;BME280;67394;52.522;13.622;2023-06-14T10:36:29;101297.84;;;20.39;52.05
78144;BME280;67394;52.522;13.622;2023-06-14T10:39:17;101289.19;;;20.37;52.13
78144;BME280;67394;52.522;13.622;2023-06-14T10:41:55;101299.34;;;20.46;52.37
78144;BME280;67394;52.522;13.622;2023-06-14T10:46:49;101286.13;;;20.79;52.03
78144;BME280;67394;52.522;13.622;2023-06-14T10:49:19;101288.25;;;20.94;49.46
78144;BME280;67394;52.522;13.622;2023-06-14T10:51:50;101287.19;;;21.00;51.26
78144;BME280;67394;52.522;13.622;2023-06-14T10:54:17;101288.50;;;21.13;50.11
78144;BME280;67394;52.522;13.622;2023-06-14T10:56:48;101282.25;;;21.18;49.80
78144;BME280;67394;52.522;13.622;2023-06-14T10:59:16;101279.75;;;21.14;48.26
78144;BME280;67394;52.522;13.622;2023-06-14T11:01:57;101278.63;;;20.96;49.73
78144;BME280;67394;52.522;13.622;2023-06-14T11:04:40;101270.69;;;20.99;49.45
78144;BME280;67394;52.522;13.622;2023-06-14T11:13:00;101260.94;;;21.31;48.38
78144;BME280;67394;52.522;13.622;2023-06-14T11:15:30;101264.25;;;21.61;48.35
78144;BME280;67394;52.522;13.622;2023-06-14T11:18:00;101264.69;;;21.48;47.81
78144;BME280;67394;52.522;13.622;2023-06-14T11:20:30;101252.03;;;21.84;47.23
78144;BME280;67394;52.522;13.622;2023-06-14T11:22:57;101250.53;;;22.02;46.64
78144;BME280;67394;52.522;13.622;2023-06-14T11:25:24;101253.97;;;21.79;45.91
78144;BME280;67394;52.522;13.622;2023-06-14T11:27:51;101247.94;;;21.77;46.34
78144;BME280;67394;52.522;13.622;2023-06-14T11:30:18;101242.16;;;21.92;46.42
78144;BME280;67394;52.522;13.622;2023-06-14T11:32:48;101242.50;;;22.07;46.44
78144;BME280;67394;52.522;13.622;2023-06-14T11:35:16;101232.91;;;22.29;46.03
78144;BME280;67394;52.522;13.622;2023-06-14T11:37:43;101236.75;;;22.42;44.35
78144;BME280;67394;52.522;13.622;2023-06-14T11:40:10;101235.59;;;22.49;44.30
78144;BME280;67394;52.522;13.622;2023-06-14T11:42:41;101233.84;;;22.70;43.35
78144;BME280;67394;52.522;13.622;2023-06-14T11:45:09;101224.03;;;22.77;42.90
78144;BME280;67394;52.522;13.622;2023-06-14T11:47:37;101218.75;;;22.98;42.44
78144;BME280;67394;52.522;13.622;2023-06-14T11:50:05;101217.44;;;23.48;42.24
78144;BME280;67394;52.522;13.622;2023-06-14T11:52:32;101201.47;;;23.54;41.30
78144;BME280;67394;52.522;13.622;2023-06-14T11:55:00;101209.63;;;24.04;41.02
78144;BME280;67394;52.522;13.622;2023-06-14T11:57:27;101214.59;;;24.63;40.40
78144;BME280;67394;52.522;13.622;2023-06-14T11:59:54;101197.56;;;24.89;40.25
78144;BME280;67394;52.522;13.622;2023-06-14T12:02:22;101202.28;;;25.33;38.33
78144;BME280;67394;52.522;13.622;2023-06-14T12:04:50;101183.94;;;25.48;37.54
78144;BME280;67394;52.522;13.622;2023-06-14T12:07:18;101182.75;;;25.54;38.11
78144;BME280;67394;52.522;13.622;2023-06-14T12:12:21;101189.59;;;24.91;36.62
78144;BME280;67394;52.522;13.622;2023-06-14T12:14:49;101189.22;;;24.81;37.97
78144;BME280;67394;52.522;13.622;2023-06-14T12:17:17;101189.72;;;25.22;38.27
78144;BME280;67394;52.522;13.622;2023-06-14T12:19:45;101180.19;;;25.21;36.76
78144;BME280;67394;52.522;13.622;2023-06-14T12:22:13;101178.97;;;25.60;34.77
78144;BME280;67394;52.522;13.622;2023-06-14T12:24:45;101175.09;;;25.82;35.51
78144;BME280;67394;52.522;13.622;2023-06-14T12:27:12;101171.28;;;25.72;34.34
78144;BME280;67394;52.522;13.622;2023-06-14T12:29:39;101166.94;;;25.87;34.51
78144;BME280;67394;52.522;13.622;2023-06-14T12:32:06;101168.81;;;25.69;34.78
78144;BME280;67394;52.522;13.622;2023-06-14T12:34:33;101164.06;;;25.76;35.09
78144;BME280;67394;52.522;13.622;2023-06-14T12:37:00;101161.19;;;25.96;34.65
78144;BME280;67394;52.522;13.622;2023-06-14T12:39:26;101160.72;;;25.74;34.37
78144;BME280;67394;52.522;13.622;2023-06-14T12:41:53;101161.69;;;25.87;34.28
78144;BME280;67394;52.522;13.622;2023-06-14T12:44:20;101157.69;;;26.57;33.42
78144;BME280;67394;52.522;13.622;2023-06-14T12:46:46;101153.69;;;26.36;33.84
78144;BME280;67394;52.522;13.622;2023-06-14T12:49:13;101153.97;;;26.15;34.25
78144;BME280;67394;52.522;13.622;2023-06-14T12:51:40;101151.03;;;27.10;33.87
78144;BME280;67394;52.522;13.622;2023-06-14T12:54:07;101146.22;;;27.30;32.38
78144;BME280;67394;52.522;13.622;2023-06-14T12:56:33;101142.88;;;26.84;32.56
78144;BME280;67394;52.522;13.622;2023-06-14T12:59:00;101144.81;;;26.52;32.91
78144;BME280;67394;52.522;13.622;2023-06-14T13:01:26;101149.59;;;27.18;33.14
78144;BME280;67394;52.522;13.622;2023-06-14T13:03:53;101149.31;;;27.09;32.52
78144;BME280;67394;52.522;13.622;2023-06-14T13:06:21;101147.69;;;27.34;31.91
78144;BME280;67394;52.522;13.622;2023-06-14T13:08:48;101142.50;;;26.76;31.79
78144;BME280;67394;52.522;13.622;2023-06-14T13:11:15;101143.66;;;26.42;32.35